sensor_id;sensor_type;location;lat;lon;timestamp;pressure;altitude;pressure_sealevel;temperature;humidity
15294;BME280;7748;52.474;13.454;2022-08-11T00:01:10;58734.78;;;-145.20;100.00
15294;BME280;7748;52.474;13.454;2022-08-11T00:03:45;58734.78;;;-145.20;100.00
15294;BME280;7748;52.474;13.454;2022-08-11T00:06:14;58734.78;;;-145.20;100.00
15294;BME280;7748;52.474;13.454;2022-08-11T00:08:50;58734.78;;;-145.20;100.00
15294;BME280;7748;52.474;13.454;2022-08-11T00:11:18;58734.78;;;-145.20;100.00
15294;BME280;7748;52.474;13.454;2022-08-11T00:13:53;58734.78;;;-145.20;100.00
15294;BME280;7748;52.474;13.454;2022-08-11T00:16:22;58734.78;;;-145.20;100.00
15294;BME280;7748;52.474;13.454;2022-08-11T00:18:52;58734.78;;;-145.20;100.00
15294;BME280;7748;52.474;13.454;2022-08-11T00:21:21;58734.78;;;-145.20;100.00
15294;BME280;7748;52.474;13.454;2022-08-11T00:24:10;58734.78;;;-145.20;100.00
15294;BME280;7748;52.474;13.454;2022-08-11T00:26:38;58734.78;;;-145.20;100.00
15294;BME280;7748;52.474;13.454;2022-08-11T00:29:11;58734.78;;;-145.20;100.00
15294;BME280;7748;52.474;13.454;2022-08-11T00:31:43;58734.78;;;-145.20;100.00
15294;BME280;7748;52.474;13.454;2022-08-11T00:34:15;58734.78;;;-145.20;100.00
15294;BME280;7748;52.474;13.454;2022-08-11T00:36:48;58734.78;;;-145.20;100.00
15294;BME280;7748;52.474;13.454;2022-08-11T00:39:18;58734.78;;;-145.20;100.00
15294;BME280;7748;52.474;13.454;2022-08-11T00:42:05;58734.78;;;-145.20;100.00
15294;BME280;7748;52.474;13.454;2022-08-11T00:44:46;58734.78;;;-145.20;100.00
15294;BME280;7748;52.474;13.454;2022-08-11T00:47:23;58734.78;;;-145.20;100.00
15294;BME280;7748;52.474;13.454;2022-08-11T00:50:02;58734.78;;;-145.20;100.00
15294;BME280;7748;52.474;13.454;2022-08-11T00:52:43;58734.78;;;-145.20;100.00
15294;BME280;7748;52.474;13.454;2022-08-11T00:55:41;58734.78;;;-145.20;100.00
15294;BME280;7748;52.474;13.454;2022-08-11T00:58:45;58734.78;;;-145.20;100.00
15294;BME280;7748;52.474;13.454;2022-08-11T01:01:28;58734.78;;;-145.20;100.00
15294;BME280;7748;52.474;13.454;2022-08-11T01:04:28;58734.78;;;-145.20;100.00
15294;BME280;7748;52.474;13.454;2022-08-11T01:10:39;58734.78;;;-145.20;100.00
15294;BME280;7748;52.474;13.454;2022-08-11T01:13:18;58734.78;;;-145.20;100.00
15294;BME280;7748;52.474;13.454;2022-08-11T01:16:16;58734.78;;;-145.20;100.00
15294;BME280;7748;52.474;13.454;2022-08-11T01:19:41;58734.78;;;-145.20;100.00
15294;BME280;7748;52.474;13.454;2022-08-11T01:29:24;58734.78;;;-145.20;100.00
15294;BME280;7748;52.474;13.454;2022-08-11T01:35:34;58734.78;;;-145.20;100.00
15294;BME280;7748;52.474;13.454;2022-08-11T01:38:37;58734.78;;;-145.20;100.00
15294;BME280;7748;52.474;13.454;2022-08-11T01:41:40;58734.78;;;-145.20;100.00
15294;BME280;7748;52.474;13.454;2022-08-11T01:45:01;58734.78;;;-145.20;100.00
15294;BME280;7748;52.474;13.454;2022-08-11T01:47:37;58734.78;;;-145.20;100.00
15294;BME280;7748;52.474;13.454;2022-08-11T01:50:27;58734.78;;;-145.20;100.00
15294;BME280;7748;52.474;13.454;2022-08-11T01:53:11;58734.78;;;-145.20;100.00
15294;BME280;7748;52.474;13.454;2022-08-11T01:55:48;58734.78;;;-145.20;100.00
15294;BME280;7748;52.474;13.454;2022-08-11T01:58:28;58734.78;;;-145.20;100.00
15294;BME280;7748;52.474;13.454;2022-08-11T02:01:31;58734.78;;;-145.20;100.00
15294;BME280;7748;52.474;13.454;2022-08-11T02:04:14;58734.78;;;-145.20;100.00
15294;BME280;7748;52.474;13.454;2022-08-11T02:06:49;58734.78;;;-145.20;100.00
15294;BME280;7748;52.474;13.454;2022-08-11T02:09:41;58734.78;;;-145.20;100.00
15294;BME280;7748;52.474;13.454;2022-08-11T02:12:17;58734.78;;;-145.20;100.00
15294;BME280;7748;52.474;13.454;2022-08-11T02:14:58;101976.38;;;19.48;100.00
15294;BME280;7748;52.474;13.454;2022-08-11T02:17:46;101966.72;;;19.48;100.00
15294;BME280;7748;52.474;13.454;2022-08-11T02:20:24;101971.03;;;19.43;100.00
15294;BME280;7748;52.474;13.454;2022-08-11T02:23:21;101970.06;;;19.40;100.00
15294;BME280;7748;52.474;13.454;2022-08-11T02:26:34;101979.53;;;19.27;100.00
15294;BME280;7748;52.474;13.454;2022-08-11T02:29:12;101965.47;;;19.28;100.00
15294;BME280;7748;52.474;13.454;2022-08-11T02:31:57;101964.59;;;19.27;100.00
15294;BME280;7748;52.474;13.454;2022-08-11T02:35:11;101968.03;;;19.22;100.00
15294;BME280;7748;52.474;13.454;2022-08-11T02:37:50;101965.78;;;18.96;100.00
15294;BME280;7748;52.474;13.454;2022-08-11T02:40:29;101966.94;;;19.10;100.00
15294;BME280;7748;52.474;13.454;2022-08-11T02:43:08;101966.75;;;19.01;100.00
15294;BME280;7748;52.474;13.454;2022-08-11T02:45:53;101974.38;;;18.87;100.00
15294;BME280;7748;52.474;13.454;2022-08-11T02:48:37;101968.41;;;18.96;100.00
15294;BME280;7748;52.474;13.454;2022-08-11T02:51:34;101968.47;;;18.99;100.00
15294;BME280;7748;52.474;13.454;2022-08-11T02:54:11;101964.53;;;18.79;100.00
15294;BME280;7748;52.474;13.454;2022-08-11T02:56:48;101964.72;;;18.88;100.00
15294;BME280;7748;52.474;13.454;2022-08-11T02:59:32;101967.81;;;18.68;100.00
15294;BME280;7748;52.474;13.454;2022-08-11T03:02:28;101968.06;;;18.78;100.00
15294;BME280;7748;52.474;13.454;2022-08-11T03:05:04;101972.34;;;18.76;100.00
15294;BME280;7748;52.474;13.454;2022-08-11T03:07:40;101963.72;;;18.81;100.00
15294;BME280;7748;52.474;13.454;2022-08-11T03:10:17;101964.19;;;18.63;100.00
15294;BME280;7748;52.474;13.454;2022-08-11T03:12:52;101960.75;;;18.67;100.00
15294;BME280;7748;52.474;13.454;2022-08-11T03:15:47;101971.38;;;18.70;100.00
15294;BME280;7748;52.474;13.454;2022-08-11T03:18:39;101968.06;;;18.78;100.00
15294;BME280;7748;52.474;13.454;2022-08-11T03:21:14;101967.13;;;18.77;100.00
15294;BME280;7748;52.474;13.454;2022-08-11T03:23:51;101963.31;;;18.63;100.00
15294;BME280;7748;52.474;13.454;2022-08-11T03:26:25;101962.38;;;18.59;100.00
15294;BME280;7748;52.474;13.454;2022-08-11T03:29:09;101970.38;;;18.65;100.00
15294;BME280;7748;52.474;13.454;2022-08-11T03:31:48;101973.22;;;18.35;100.00
15294;BME280;7748;52.474;13.454;2022-08-11T03:34:22;101972.41;;;18.38;100.00
15294;BME280;7748;52.474;13.454;2022-08-11T03:37:05;101972.31;;;18.32;100.00
15294;BME280;7748;52.474;13.454;2022-08-11T03:39:53;101969.41;;;18.21;100.00
15294;BME280;7748;52.474;13.454;2022-08-11T03:42:28;101972.16;;;18.25;100.00
15294;BME280;7748;52.474;13.454;2022-08-11T03:45:04;101972.00;;;18.19;100.00
15294;BME280;7748;52.474;13.454;2022-08-11T03:47:43;101973.78;;;18.20;100.00
15294;BME280;7748;52.474;13.454;2022-08-11T03:50:34;101972.31;;;18.33;100.00
15294;BME280;7748;52.474;13.454;2022-08-11T03:53:34;101977.72;;;18.39;100.00
15294;BME280;7748;52.474;13.454;2022-08-11T03:56:30;101977.63;;;18.35;100.00
15294;BME280;7748;52.474;13.454;2022-08-11T04:02:36;101979.22;;;18.26;100.00
15294;BME280;7748;52.474;13.454;2022-08-11T04:05:38;101969.81;;;18.39;100.00
15294;BME280;7748;52.474;13.454;2022-08-11T04:08:34;101977.00;;;18.46;100.00
15294;BME280;7748;52.474;13.454;2022-08-11T04:11:30;101976.63;;;18.29;100.00
15294;BME280;7748;52.474;13.454;2022-08-11T04:14:36;101976.16;;;18.49;100.00
15294;BME280;7748;52.474;13.454;2022-08-11T04:17:50;101980.31;;;18.38;100.00
15294;BME280;7748;52.474;13.454;2022-08-11T04:20:50;101975.84;;;18.34;100.00
15294;BME280;7748;52.474;13.454;2022-08-11T04:23:30;101973.13;;;18.29;100.00
15294;BME280;7748;52.474;13.454;2022-08-11T04:29:45;101978.22;;;18.62;100.00
15294;BME280;7748;52.474;13.454;2022-08-11T04:32:47;101985.34;;;18.66;100.00
15294;BME280;7748;52.474;13.454;2022-08-11T04:35:31;101981.91;;;18.70;100.00
15294;BME280;7748;52.474;13.454;2022-08-11T04:38:37;101976.78;;;18.77;100.00
15294;BME280;7748;52.474;13.454;2022-08-11T04:41:28;101985.78;;;18.88;100.00
15294;BME280;7748;52.474;13.454;2022-08-11T04:47:11;58734.78;;;-145.20;100.00
15294;BME280;7748;52.474;13.454;2022-08-11T04:50:31;58734.78;;;-145.20;100.00
15294;BME280;7748;52.474;13.454;2022-08-11T04:53:53;58734.78;;;-145.20;100.00
15294;BME280;7748;52.474;13.454;2022-08-11T04:56:42;58734.78;;;-145.20;100.00
15294;BME280;7748;52.474;13.454;2022-08-11T04:59:59;58734.78;;;-145.20;100.00
15294;BME280;7748;52.474;13.454;2022-08-11T05:06:19;58734.78;;;-145.20;100.00
15294;BME280;7748;52.474;13.454;2022-08-11T05:09:12;58734.78;;;-145.20;100.00
15294;BME280;7748;52.474;13.454;2022-08-11T05:12:18;58734.78;;;-145.20;100.00
15294;BME280;7748;52.474;13.454;2022-08-11T05:14:49;58734.78;;;-145.20;100.00
15294;BME280;7748;52.474;13.454;2022-08-11T05:17:41;58734.78;;;-145.20;100.00
15294;BME280;7748;52.474;13.454;2022-08-11T05:20:53;58734.78;;;-145.20;100.00
15294;BME280;7748;52.474;13.454;2022-08-11T05:23:41;58734.78;;;-145.20;100.00
15294;BME280;7748;52.474;13.454;2022-08-11T05:26:37;58734.78;;;-145.20;100.00
15294;BME280;7748;52.474;13.454;2022-08-11T05:29:27;58734.78;;;-145.20;100.00
15294;BME280;7748;52.474;13.454;2022-08-11T05:32:22;58734.78;;;-145.20;100.00
15294;BME280;7748;52.474;13.454;2022-08-11T05:35:08;58734.78;;;-145.20;100.00
15294;BME280;7748;52.474;13.454;2022-08-11T05:37:57;58734.78;;;-145.20;100.00
15294;BME280;7748;52.474;13.454;2022-08-11T05:40:50;58734.78;;;-145.20;100.00
15294;BME280;7748;52.474;13.454;2022-08-11T05:43:43;58734.78;;;-145.20;100.00
15294;BME280;7748;52.474;13.454;2022-08-11T05:46:48;58734.78;;;-145.20;100.00
15294;BME280;7748;52.474;13.454;2022-08-11T05:49:34;58734.78;;;-145.20;100.00
15294;BME280;7748;52.474;13.454;2022-08-11T05:52:21;58734.78;;;-145.20;100.00
15294;BME280;7748;52.474;13.454;2022-08-11T05:55:08;58734.78;;;-145.20;100.00
15294;BME280;7748;52.474;13.454;2022-08-11T05:58:02;58734.78;;;-145.20;100.00
15294;BME280;7748;52.474;13.454;2022-08-11T06:00:40;58734.78;;;-145.20;100.00
15294;BME280;7748;52.474;13.454;2022-08-11T06:03:08;58734.78;;;-145.20;100.00
15294;BME280;7748;52.474;13.454;2022-08-11T06:05:39;58734.78;;;-145.20;100.00
15294;BME280;7748;52.474;13.454;2022-08-11T06:08:11;58734.78;;;-145.20;100.00
15294;BME280;7748;52.474;13.454;2022-08-11T06:10:40;58734.78;;;-145.20;100.00
15294;BME280;7748;52.474;13.454;2022-08-11T06:13:09;58734.78;;;-145.20;100.00
15294;BME280;7748;52.474;13.454;2022-08-11T06:15:46;58734.78;;;-145.20;100.00
15294;BME280;7748;52.474;13.454;2022-08-11T06:18:15;58734.78;;;-145.20;100.00
15294;BME280;7748;52.474;13.454;2022-08-11T06:20:45;58734.78;;;-145.20;100.00
15294;BME280;7748;52.474;13.454;2022-08-11T06:23:15;58734.78;;;-145.20;100.00
15294;BME280;7748;52.474;13.454;2022-08-11T06:25:45;58734.78;;;-145.20;100.00
15294;BME280;7748;52.474;13.454;2022-08-11T06:28:18;58734.78;;;-145.20;100.00
15294;BME280;7748;52.474;13.454;2022-08-11T06:30:49;58734.78;;;-145.20;100.00
15294;BME280;7748;52.474;13.454;2022-08-11T06:33:33;58734.78;;;-145.20;100.00
15294;BME280;7748;52.474;13.454;2022-08-11T06:36:10;58734.78;;;-145.20;100.00
15294;BME280;7748;52.474;13.454;2022-08-11T06:38:55;58734.78;;;-145.20;100.00
15294;BME280;7748;52.474;13.454;2022-08-11T06:41:31;58734.78;;;-145.20;100.00
15294;BME280;7748;52.474;13.454;2022-08-11T06:44:14;58734.78;;;-145.20;100.00
15294;BME280;7748;52.474;13.454;2022-08-11T06:46:48;58734.78;;;-145.20;100.00
15294;BME280;7748;52.474;13.454;2022-08-11T06:49:20;58734.78;;;-145.20;100.00
15294;BME280;7748;52.474;13.454;2022-08-11T06:52:09;58734.78;;;-145.20;100.00
15294;BME280;7748;52.474;13.454;2022-08-11T06:55:04;58734.78;;;-145.20;100.00
15294;BME280;7748;52.474;13.454;2022-08-11T06:57:53;58734.78;;;-145.20;100.00
15294;BME280;7748;52.474;13.454;2022-08-11T07:00:39;58734.78;;;-145.20;100.00
15294;BME280;7748;52.474;13.454;2022-08-11T07:03:11;58734.78;;;-145.20;100.00
15294;BME280;7748;52.474;13.454;2022-08-11T07:05:47;58734.78;;;-145.20;100.00
15294;BME280;7748;52.474;13.454;2022-08-11T07:08:37;58734.78;;;-145.20;100.00
15294;BME280;7748;52.474;13.454;2022-08-11T07:11:53;58734.78;;;-145.20;100.00
15294;BME280;7748;52.474;13.454;2022-08-11T07:14:47;58734.78;;;-145.20;100.00
15294;BME280;7748;52.474;13.454;2022-08-11T07:17:38;58734.78;;;-145.20;100.00
15294;BME280;7748;52.474;13.454;2022-08-11T07:20:11;58734.78;;;-145.20;100.00
15294;BME280;7748;52.474;13.454;2022-08-11T07:22:58;58734.78;;;-145.20;100.00
15294;BME280;7748;52.474;13.454;2022-08-11T07:25:48;58734.78;;;-145.20;100.00
15294;BME280;7748;52.474;13.454;2022-08-11T07:28:45;58734.78;;;-145.20;100.00
15294;BME280;7748;52.474;13.454;2022-08-11T07:31:34;58734.78;;;-145.20;100.00
15294;BME280;7748;52.474;13.454;2022-08-11T07:34:15;58734.78;;;-145.20;100.00
15294;BME280;7748;52.474;13.454;2022-08-11T07:36:50;58734.78;;;-145.20;100.00
15294;BME280;7748;52.474;13.454;2022-08-11T07:39:21;58734.78;;;-145.20;100.00
15294;BME280;7748;52.474;13.454;2022-08-11T07:41:51;58734.78;;;-145.20;100.00
15294;BME280;7748;52.474;13.454;2022-08-11T07:44:20;58734.78;;;-145.20;100.00
15294;BME280;7748;52.474;13.454;2022-08-11T07:46:58;58734.78;;;-145.20;100.00
15294;BME280;7748;52.474;13.454;2022-08-11T07:49:45;58734.78;;;-145.20;100.00
15294;BME280;7748;52.474;13.454;2022-08-11T07:52:35;58734.78;;;-145.20;100.00
15294;BME280;7748;52.474;13.454;2022-08-11T07:55:10;58734.78;;;-145.20;100.00
15294;BME280;7748;52.474;13.454;2022-08-11T07:57:40;58734.78;;;-145.20;100.00
15294;BME280;7748;52.474;13.454;2022-08-11T08:00:47;58734.78;;;-145.20;100.00
15294;BME280;7748;52.474;13.454;2022-08-11T08:03:43;58734.78;;;-145.20;100.00
15294;BME280;7748;52.474;13.454;2022-08-11T08:06:31;58734.78;;;-145.20;100.00
15294;BME280;7748;52.474;13.454;2022-08-11T08:09:20;58734.78;;;-145.20;100.00
15294;BME280;7748;52.474;13.454;2022-08-11T08:12:07;58734.78;;;-145.20;100.00
15294;BME280;7748;52.474;13.454;2022-08-11T08:14:54;58734.78;;;-145.20;100.00
15294;BME280;7748;52.474;13.454;2022-08-11T08:17:41;58734.78;;;-145.20;100.00
15294;BME280;7748;52.474;13.454;2022-08-11T08:20:38;58734.78;;;-145.20;100.00
15294;BME280;7748;52.474;13.454;2022-08-11T08:23:09;58734.78;;;-145.20;100.00
15294;BME280;7748;52.474;13.454;2022-08-11T08:25:41;58734.78;;;-145.20;100.00
15294;BME280;7748;52.474;13.454;2022-08-11T08:28:11;58734.78;;;-145.20;100.00
15294;BME280;7748;52.474;13.454;2022-08-11T08:30:41;58734.78;;;-145.20;100.00
15294;BME280;7748;52.474;13.454;2022-08-11T08:33:19;58734.78;;;-145.20;100.00
15294;BME280;7748;52.474;13.454;2022-08-11T08:35:51;58734.78;;;-145.20;100.00
15294;BME280;7748;52.474;13.454;2022-08-11T08:38:38;58734.78;;;-145.20;100.00
15294;BME280;7748;52.474;13.454;2022-08-11T08:41:09;58734.78;;;-145.20;100.00
15294;BME280;7748;52.474;13.454;2022-08-11T08:43:42;58734.78;;;-145.20;100.00
15294;BME280;7748;52.474;13.454;2022-08-11T08:46:18;58734.78;;;-145.20;100.00
15294;BME280;7748;52.474;13.454;2022-08-11T08:48:47;58734.78;;;-145.20;100.00
15294;BME280;7748;52.474;13.454;2022-08-11T08:51:20;58734.78;;;-145.20;100.00
15294;BME280;7748;52.474;13.454;2022-08-11T08:54:23;58734.78;;;-145.20;100.00
15294;BME280;7748;52.474;13.454;2022-08-11T08:56:55;58734.78;;;-145.20;100.00
15294;BME280;7748;52.474;13.454;2022-08-11T08:59:25;58734.78;;;-145.20;100.00
15294;BME280;7748;52.474;13.454;2022-08-11T09:02:15;58734.78;;;-145.20;100.00
15294;BME280;7748;52.474;13.454;2022-08-11T09:04:45;58734.78;;;-145.20;100.00
15294;BME280;7748;52.474;13.454;2022-08-11T09:07:16;58734.78;;;-145.20;100.00
15294;BME280;7748;52.474;13.454;2022-08-11T09:09:49;58734.78;;;-145.20;100.00
15294;BME280;7748;52.474;13.454;2022-08-11T09:12:20;58734.78;;;-145.20;100.00
15294;BME280;7748;52.474;13.454;2022-08-11T09:15:05;58734.78;;;-145.20;100.00
15294;BME280;7748;52.474;13.454;2022-08-11T09:17:39;58734.78;;;-145.20;100.00
15294;BME280;7748;52.474;13.454;2022-08-11T09:20:11;58734.78;;;-145.20;100.00
15294;BME280;7748;52.474;13.454;2022-08-11T09:22:43;58734.78;;;-145.20;100.00
15294;BME280;7748;52.474;13.454;2022-08-11T09:25:52;58734.78;;;-145.20;100.00
15294;BME280;7748;52.474;13.454;2022-08-11T09:28:42;58734.78;;;-145.20;100.00
15294;BME280;7748;52.474;13.454;2022-08-11T09:31:14;58734.78;;;-145.20;100.00
15294;BME280;7748;52.474;13.454;2022-08-11T09:33:47;58734.78;;;-145.20;100.00
15294;BME280;7748;52.474;13.454;2022-08-11T09:36:19;58734.78;;;-145.20;100.00
15294;BME280;7748;52.474;13.454;2022-08-11T09:39:05;58734.78;;;-145.20;100.00
15294;BME280;7748;52.474;13.454;2022-08-11T09:41:51;58734.78;;;-145.20;100.00
15294;BME280;7748;52.474;13.454;2022-08-11T09:44:30;58734.78;;;-145.20;100.00
15294;BME280;7748;52.474;13.454;2022-08-11T09:47:20;58734.78;;;-145.20;100.00
15294;BME280;7748;52.474;13.454;2022-08-11T09:49:51;58734.78;;;-145.20;100.00
15294;BME280;7748;52.474;13.454;2022-08-11T09:52:22;58734.78;;;-145.20;100.00
15294;BME280;7748;52.474;13.454;2022-08-11T09:54:52;58734.78;;;-145.20;100.00
15294;BME280;7748;52.474;13.454;2022-08-11T09:57:21;58734.78;;;-145.20;100.00
15294;BME280;7748;52.474;13.454;2022-08-11T10:00:10;58734.78;;;-145.20;100.00
15294;BME280;7748;52.474;13.454;2022-08-11T10:02:42;58734.78;;;-145.20;100.00
15294;BME280;7748;52.474;13.454;2022-08-11T10:05:14;58734.78;;;-145.20;100.00
15294;BME280;7748;52.474;13.454;2022-08-11T10:08:02;58734.78;;;-145.20;100.00
15294;BME280;7748;52.474;13.454;2022-08-11T10:10:33;58734.78;;;-145.20;100.00
15294;BME280;7748;52.474;13.454;2022-08-11T10:13:04;58734.78;;;-145.20;100.00
15294;BME280;7748;52.474;13.454;2022-08-11T10:15:57;58734.78;;;-145.20;100.00
15294;BME280;7748;52.474;13.454;2022-08-11T10:18:43;58734.78;;;-145.20;100.00
15294;BME280;7748;52.474;13.454;2022-08-11T10:21:28;58734.78;;;-145.20;100.00
15294;BME280;7748;52.474;13.454;2022-08-11T10:23:58;58734.78;;;-145.20;100.00
15294;BME280;7748;52.474;13.454;2022-08-11T10:26:46;58734.78;;;-145.20;100.00
15294;BME280;7748;52.474;13.454;2022-08-11T10:29:25;58734.78;;;-145.20;100.00
15294;BME280;7748;52.474;13.454;2022-08-11T10:32:20;58734.78;;;-145.20;100.00
15294;BME280;7748;52.474;13.454;2022-08-11T10:35:24;58734.78;;;-145.20;100.00
15294;BME280;7748;52.474;13.454;2022-08-11T10:37:53;58734.78;;;-145.20;100.00
15294;BME280;7748;52.474;13.454;2022-08-11T10:40:36;58734.78;;;-145.20;100.00
15294;BME280;7748;52.474;13.454;2022-08-11T10:43:06;58734.78;;;-145.20;100.00
15294;BME280;7748;52.474;13.454;2022-08-11T10:45:41;58734.78;;;-145.20;100.00
15294;BME280;7748;52.474;13.454;2022-08-11T10:48:34;58734.78;;;-145.20;100.00
15294;BME280;7748;52.474;13.454;2022-08-11T10:51:05;58734.78;;;-145.20;100.00
15294;BME280;7748;52.474;13.454;2022-08-11T10:53:42;58734.78;;;-145.20;100.00
15294;BME280;7748;52.474;13.454;2022-08-11T10:56:28;58734.78;;;-145.20;100.00
15294;BME280;7748;52.474;13.454;2022-08-11T10:59:16;58734.78;;;-145.20;100.00
15294;BME280;7748;52.474;13.454;2022-08-11T11:01:44;58734.78;;;-145.20;100.00
15294;BME280;7748;52.474;13.454;2022-08-11T11:04:16;58734.78;;;-145.20;100.00
15294;BME280;7748;52.474;13.454;2022-08-11T11:06:50;58734.78;;;-145.20;100.00
15294;BME280;7748;52.474;13.454;2022-08-11T11:09:24;58734.78;;;-145.20;100.00
15294;BME280;7748;52.474;13.454;2022-08-11T11:12:02;58734.78;;;-145.20;100.00
15294;BME280;7748;52.474;13.454;2022-08-11T11:14:50;58734.78;;;-145.20;100.00
15294;BME280;7748;52.474;13.454;2022-08-11T11:17:45;58734.78;;;-145.20;100.00
15294;BME280;7748;52.474;13.454;2022-08-11T11:20:32;58734.78;;;-145.20;100.00
15294;BME280;7748;52.474;13.454;2022-08-11T11:23:11;58734.78;;;-145.20;100.00
15294;BME280;7748;52.474;13.454;2022-08-11T11:26:16;58734.78;;;-145.20;100.00
15294;BME280;7748;52.474;13.454;2022-08-11T11:29:13;58734.78;;;-145.20;100.00
15294;BME280;7748;52.474;13.454;2022-08-11T11:31:52;58734.78;;;-145.20;100.00
15294;BME280;7748;52.474;13.454;2022-08-11T11:34:40;58734.78;;;-145.20;100.00
15294;BME280;7748;52.474;13.454;2022-08-11T11:37:21;58734.78;;;-145.20;100.00
15294;BME280;7748;52.474;13.454;2022-08-11T11:39:51;58734.78;;;-145.20;100.00
15294;BME280;7748;52.474;13.454;2022-08-11T11:42:19;58734.78;;;-145.20;100.00
15294;BME280;7748;52.474;13.454;2022-08-11T11:44:48;58734.78;;;-145.20;100.00
15294;BME280;7748;52.474;13.454;2022-08-11T11:47:21;58734.78;;;-145.20;100.00
15294;BME280;7748;52.474;13.454;2022-08-11T11:49:49;58734.78;;;-145.20;100.00
15294;BME280;7748;52.474;13.454;2022-08-11T11:52:20;58734.78;;;-145.20;100.00
15294;BME280;7748;52.474;13.454;2022-08-11T11:54:52;58734.78;;;-145.20;100.00
15294;BME280;7748;52.474;13.454;2022-08-11T11:57:22;58734.78;;;-145.20;100.00
15294;BME280;7748;52.474;13.454;2022-08-11T12:00:24;58734.78;;;-145.20;100.00
15294;BME280;7748;52.474;13.454;2022-08-11T12:03:10;58734.78;;;-145.20;100.00
15294;BME280;7748;52.474;13.454;2022-08-11T12:05:41;58734.78;;;-145.20;100.00
15294;BME280;7748;52.474;13.454;2022-08-11T12:08:12;58734.78;;;-145.20;100.00
15294;BME280;7748;52.474;13.454;2022-08-11T12:10:46;58734.78;;;-145.20;100.00
15294;BME280;7748;52.474;13.454;2022-08-11T12:13:16;58734.78;;;-145.20;100.00
15294;BME280;7748;52.474;13.454;2022-08-11T12:16:12;58734.78;;;-145.20;100.00
15294;BME280;7748;52.474;13.454;2022-08-11T12:19:01;58734.78;;;-145.20;100.00
15294;BME280;7748;52.474;13.454;2022-08-11T12:21:30;58734.78;;;-145.20;100.00
15294;BME280;7748;52.474;13.454;2022-08-11T12:24:00;58734.78;;;-145.20;100.00
15294;BME280;7748;52.474;13.454;2022-08-11T12:26:47;58734.78;;;-145.20;100.00
15294;BME280;7748;52.474;13.454;2022-08-11T12:29:44;58734.78;;;-145.20;100.00
15294;BME280;7748;52.474;13.454;2022-08-11T12:32:17;58734.78;;;-145.20;100.00
15294;BME280;7748;52.474;13.454;2022-08-11T12:34:46;58734.78;;;-145.20;100.00
15294;BME280;7748;52.474;13.454;2022-08-11T12:37:18;58734.78;;;-145.20;100.00
15294;BME280;7748;52.474;13.454;2022-08-11T12:39:52;58734.78;;;-145.20;100.00
15294;BME280;7748;52.474;13.454;2022-08-11T12:43:17;58734.78;;;-145.20;100.00
15294;BME280;7748;52.474;13.454;2022-08-11T12:46:10;58734.78;;;-145.20;100.00
15294;BME280;7748;52.474;13.454;2022-08-11T12:48:43;58734.78;;;-145.20;100.00
15294;BME280;7748;52.474;13.454;2022-08-11T12:51:33;58734.78;;;-145.20;100.00
15294;BME280;7748;52.474;13.454;2022-08-11T12:54:48;58734.78;;;-145.20;100.00
15294;BME280;7748;52.474;13.454;2022-08-11T12:57:25;58734.78;;;-145.20;100.00
15294;BME280;7748;52.474;13.454;2022-08-11T13:00:13;58734.78;;;-145.20;100.00
15294;BME280;7748;52.474;13.454;2022-08-11T13:02:59;58734.78;;;-145.20;100.00
15294;BME280;7748;52.474;13.454;2022-08-11T13:05:46;58734.78;;;-145.20;100.00
15294;BME280;7748;52.474;13.454;2022-08-11T13:08:15;58734.78;;;-145.20;100.00
15294;BME280;7748;52.474;13.454;2022-08-11T13:10:44;58734.78;;;-145.20;100.00
15294;BME280;7748;52.474;13.454;2022-08-11T13:13:32;58734.78;;;-145.20;100.00
15294;BME280;7748;52.474;13.454;2022-08-11T13:16:21;58734.78;;;-145.20;100.00
15294;BME280;7748;52.474;13.454;2022-08-11T13:18:50;58734.78;;;-145.20;100.00
15294;BME280;7748;52.474;13.454;2022-08-11T13:21:20;58734.78;;;-145.20;100.00
15294;BME280;7748;52.474;13.454;2022-08-11T13:23:49;58734.78;;;-145.20;100.00
15294;BME280;7748;52.474;13.454;2022-08-11T13:26:28;58734.78;;;-145.20;100.00
15294;BME280;7748;52.474;13.454;2022-08-11T13:29:21;58734.78;;;-145.20;100.00
15294;BME280;7748;52.474;13.454;2022-08-11T13:31:50;58734.78;;;-145.20;100.00
15294;BME280;7748;52.474;13.454;2022-08-11T13:34:19;58734.78;;;-145.20;100.00
15294;BME280;7748;52.474;13.454;2022-08-11T13:36:49;58734.78;;;-145.20;100.00
15294;BME280;7748;52.474;13.454;2022-08-11T13:39:19;58734.78;;;-145.20;100.00
15294;BME280;7748;52.474;13.454;2022-08-11T13:41:50;58734.78;;;-145.20;100.00
15294;BME280;7748;52.474;13.454;2022-08-11T13:44:20;58734.78;;;-145.20;100.00
15294;BME280;7748;52.474;13.454;2022-08-11T13:46:53;58734.78;;;-145.20;100.00
15294;BME280;7748;52.474;13.454;2022-08-11T13:49:24;58734.78;;;-145.20;100.00
15294;BME280;7748;52.474;13.454;2022-08-11T13:51:53;58734.78;;;-145.20;100.00
15294;BME280;7748;52.474;13.454;2022-08-11T13:54:23;58734.78;;;-145.20;100.00
15294;BME280;7748;52.474;13.454;2022-08-11T13:56:53;58734.78;;;-145.20;100.00
15294;BME280;7748;52.474;13.454;2022-08-11T13:59:24;58734.78;;;-145.20;100.00
15294;BME280;7748;52.474;13.454;2022-08-11T14:01:58;58734.78;;;-145.20;100.00
15294;BME280;7748;52.474;13.454;2022-08-11T14:04:52;58734.78;;;-145.20;100.00
15294;BME280;7748;52.474;13.454;2022-08-11T14:07:23;58734.78;;;-145.20;100.00
15294;BME280;7748;52.474;13.454;2022-08-11T14:09:55;58734.78;;;-145.20;100.00
15294;BME280;7748;52.474;13.454;2022-08-11T14:12:26;58734.78;;;-145.20;100.00
15294;BME280;7748;52.474;13.454;2022-08-11T14:15:17;58734.78;;;-145.20;100.00